createdAt,value
2022-11-18T00:01:21.542Z,4.10
2022-11-18T00:03:50.378Z,3.70
2022-11-18T00:06:20.570Z,3.77
2022-11-18T00:08:49.014Z,4.17
2022-11-18T00:11:34.616Z,4.40
2022-11-18T00:14:22.267Z,3.80
2022-11-18T00:16:54.052Z,3.83
2022-11-18T00:19:24.761Z,3.67
2022-11-18T00:21:52.895Z,3.93
2022-11-18T00:24:21.004Z,4.30
2022-11-18T00:26:48.816Z,4.10
2022-11-18T00:29:16.959Z,4.00
2022-11-18T00:31:45.338Z,4.10
2022-11-18T00:34:15.059Z,3.80
2022-11-18T00:36:43.995Z,3.73
2022-11-18T00:39:12.895Z,4.30
2022-11-18T00:41:57.287Z,2.63
2022-11-18T00:44:25.462Z,3.90
2022-11-18T00:46:54.170Z,3.70
2022-11-18T00:49:22.630Z,4.20
2022-11-18T00:51:51.517Z,3.87
2022-11-18T00:54:22.459Z,3.87
2022-11-18T00:56:51.625Z,3.77
2022-11-18T00:59:20.065Z,3.73
2022-11-18T01:01:49.370Z,3.53
2022-11-18T01:04:17.898Z,3.80
2022-11-18T01:06:45.916Z,4.17
2022-11-18T01:09:13.519Z,3.43
2022-11-18T01:11:56.481Z,3.70
2022-11-18T01:16:55.541Z,3.80
2022-11-18T01:19:24.126Z,3.90
2022-11-18T01:21:51.945Z,4.00
2022-11-18T01:24:19.615Z,3.37
2022-11-18T01:26:47.410Z,4.03
2022-11-18T01:29:16.153Z,3.67
2022-11-18T01:32:01.831Z,3.77
2022-11-18T01:34:31.931Z,4.27
2022-11-18T01:36:59.658Z,3.13
2022-11-18T01:39:27.764Z,4.00
2022-11-18T01:41:56.006Z,3.83
2022-11-18T01:44:54.018Z,3.93
2022-11-18T01:47:22.091Z,3.40
2022-11-18T01:49:49.854Z,3.40
2022-11-18T01:52:18.273Z,3.70
2022-11-18T01:54:52.617Z,4.03
2022-11-18T01:57:23.129Z,3.40
2022-11-18T01:59:56.275Z,3.53
2022-11-18T02:02:24.435Z,4.10
2022-11-18T02:04:54.900Z,3.83
2022-11-18T02:07:23.282Z,4.07
2022-11-18T02:09:53.342Z,3.43
2022-11-18T02:12:21.398Z,3.80
2022-11-18T02:14:49.385Z,3.43
2022-11-18T02:17:33.414Z,3.77
2022-11-18T02:20:20.971Z,3.77
2022-11-18T02:23:21.403Z,3.43
2022-11-18T02:26:12.144Z,3.37
2022-11-18T02:29:00.232Z,3.80
2022-11-18T02:31:36.062Z,3.20
2022-11-18T02:34:15.447Z,3.80
2022-11-18T02:36:53.409Z,3.40
2022-11-18T02:39:30.785Z,3.73
2022-11-18T02:42:00.947Z,4.20
2022-11-18T02:44:31.347Z,3.23
2022-11-18T02:47:03.377Z,3.33
2022-11-18T02:49:38.744Z,3.88
2022-11-18T02:52:08.970Z,3.80
2022-11-18T02:54:39.771Z,3.50
2022-11-18T02:57:08.282Z,3.50
2022-11-18T02:59:36.202Z,3.90
2022-11-18T03:02:04.048Z,3.80
2022-11-18T03:04:33.215Z,3.23
2022-11-18T03:07:13.571Z,4.13
2022-11-18T03:09:46.383Z,4.00
2022-11-18T03:12:42.602Z,3.40
2022-11-18T03:15:34.169Z,3.93
2022-11-18T03:18:36.758Z,3.60
2022-11-18T03:21:25.844Z,3.55
2022-11-18T03:24:04.326Z,3.57
2022-11-18T03:26:36.408Z,3.83
2022-11-18T03:29:13.793Z,3.67
2022-11-18T03:31:46.470Z,3.90
2022-11-18T03:37:00.818Z,3.43
2022-11-18T03:39:37.378Z,3.83
2022-11-18T03:42:25.864Z,4.03
2022-11-18T03:44:59.183Z,3.27
2022-11-18T03:47:32.150Z,3.70
2022-11-18T03:50:08.807Z,3.83
2022-11-18T03:52:37.800Z,3.60
2022-11-18T03:55:11.449Z,2.83
2022-11-18T03:57:51.942Z,3.50
2022-11-18T04:00:20.473Z,4.00
2022-11-18T04:02:50.275Z,4.10
2022-11-18T04:05:19.880Z,3.73
2022-11-18T04:08:02.832Z,3.80
2022-11-18T04:13:19.918Z,3.40
2022-11-18T04:15:47.830Z,3.50
2022-11-18T04:18:15.802Z,3.67
2022-11-18T04:20:44.285Z,4.07
2022-11-18T04:23:12.551Z,4.57
2022-11-18T04:25:40.342Z,4.93
2022-11-18T04:28:08.275Z,3.73
2022-11-18T04:30:37.054Z,3.80
2022-11-18T04:33:05.709Z,4.10
2022-11-18T04:35:33.502Z,3.80
2022-11-18T04:38:01.349Z,4.17
2022-11-18T04:40:29.289Z,3.43
2022-11-18T04:42:57.344Z,4.13
2022-11-18T04:45:25.034Z,3.80
2022-11-18T04:47:52.782Z,3.70
2022-11-18T04:50:20.946Z,4.03
2022-11-18T04:52:49.900Z,3.80
2022-11-18T04:55:19.076Z,3.63
2022-11-18T04:57:48.814Z,3.90
2022-11-18T05:00:17.277Z,3.70
2022-11-18T05:02:45.969Z,4.03
2022-11-18T05:05:14.134Z,3.70
2022-11-18T05:07:41.765Z,3.73
2022-11-18T05:10:10.881Z,3.83
2022-11-18T05:12:53.852Z,3.70
2022-11-18T05:17:49.606Z,3.70
2022-11-18T05:20:19.880Z,3.50
2022-11-18T05:22:48.177Z,3.37
2022-11-18T05:25:16.367Z,3.30
2022-11-18T05:27:43.758Z,3.70
2022-11-18T05:30:12.747Z,3.87
2022-11-18T05:32:40.577Z,4.07
2022-11-18T05:35:09.183Z,4.07
2022-11-18T05:37:36.727Z,4.10
2022-11-18T05:40:04.866Z,3.93
2022-11-18T05:42:47.648Z,4.00
2022-11-18T05:45:19.298Z,3.88
2022-11-18T05:48:02.747Z,3.23
2022-11-18T05:50:31.683Z,3.50
2022-11-18T05:52:59.025Z,3.70
2022-11-18T05:55:31.797Z,3.87
2022-11-18T05:57:59.338Z,3.70
2022-11-18T06:00:27.410Z,3.63
2022-11-18T06:02:56.404Z,3.90
2022-11-18T06:05:26.590Z,3.40
2022-11-18T06:07:57.302Z,3.47
2022-11-18T06:10:31.607Z,3.80
2022-11-18T06:13:02.734Z,3.77
2022-11-18T06:15:46.908Z,3.33
2022-11-18T06:18:27.454Z,3.53
2022-11-18T06:21:00.434Z,3.87
2022-11-18T06:23:32.432Z,3.60
2022-11-18T06:26:02.305Z,3.25
2022-11-18T06:28:32.703Z,3.87
2022-11-18T06:31:01.665Z,3.53
2022-11-18T06:33:29.448Z,3.87
2022-11-18T06:35:58.049Z,4.73
2022-11-18T06:38:26.002Z,3.60
2022-11-18T06:40:53.830Z,3.90
2022-11-18T06:43:36.932Z,3.83
2022-11-18T06:46:22.299Z,3.50
2022-11-18T06:48:49.971Z,3.97
2022-11-18T06:51:18.021Z,3.57
2022-11-18T06:53:45.839Z,3.33
2022-11-18T06:56:15.700Z,4.03
2022-11-18T06:58:43.502Z,3.90
2022-11-18T07:01:15.835Z,3.40
2022-11-18T07:03:45.280Z,3.80
2022-11-18T07:06:15.223Z,4.07
2022-11-18T07:08:43.730Z,4.07
2022-11-18T07:11:14.125Z,4.00
2022-11-18T07:13:43.796Z,3.33
2022-11-18T07:16:16.911Z,3.93
2022-11-18T07:18:45.750Z,3.77
2022-11-18T07:21:17.744Z,4.00
2022-11-18T07:23:46.152Z,3.50
2022-11-18T07:26:14.040Z,3.72
2022-11-18T07:28:42.076Z,3.83
2022-11-18T07:31:13.756Z,3.70
2022-11-18T07:33:45.461Z,4.00
2022-11-18T07:36:15.888Z,3.67
2022-11-18T07:38:44.802Z,4.03
2022-11-18T07:41:17.747Z,3.97
2022-11-18T07:43:46.389Z,4.25
2022-11-18T07:46:25.149Z,3.80
2022-11-18T07:48:55.015Z,4.50
2022-11-18T07:51:25.713Z,3.75
2022-11-18T07:53:53.754Z,4.22
2022-11-18T07:56:21.922Z,4.20
2022-11-18T07:58:54.627Z,4.40
2022-11-18T08:01:24.632Z,4.00
2022-11-18T08:03:52.938Z,3.60
2022-11-18T08:06:23.852Z,4.00
2022-11-18T08:08:51.767Z,4.13
2022-11-18T08:11:22.705Z,3.95
2022-11-18T08:13:52.039Z,3.80
2022-11-18T08:16:23.343Z,3.30
2022-11-18T08:18:54.983Z,4.10
2022-11-18T08:21:25.168Z,4.50
2022-11-18T08:23:58.229Z,4.00
2022-11-18T08:26:27.938Z,4.78
2022-11-18T08:28:58.485Z,4.03
2022-11-18T08:31:28.817Z,3.85
2022-11-18T08:33:58.296Z,3.85
2022-11-18T08:36:28.740Z,4.10
2022-11-18T08:38:58.695Z,4.15
2022-11-18T08:41:36.755Z,3.80
2022-11-18T08:44:05.962Z,3.58
2022-11-18T08:46:33.973Z,3.67
2022-11-18T08:49:02.947Z,4.57
2022-11-18T08:51:31.359Z,4.20
2022-11-18T08:53:59.621Z,4.22
2022-11-18T08:56:27.775Z,3.92
2022-11-18T08:58:58.117Z,3.72
2022-11-18T09:01:26.160Z,4.18
2022-11-18T09:03:54.073Z,3.53
2022-11-18T09:06:25.236Z,4.03
2022-11-18T09:08:54.095Z,4.50
2022-11-18T09:11:24.746Z,4.10
2022-11-18T09:16:46.357Z,4.10
2022-11-18T09:19:46.912Z,4.15
2022-11-18T09:22:05.430Z,4.05
2022-11-18T09:24:33.798Z,3.40
2022-11-18T09:27:05.873Z,4.10
2022-11-18T09:29:35.143Z,4.05
2022-11-18T09:32:03.136Z,4.10
2022-11-18T09:34:30.962Z,3.78
2022-11-18T09:36:59.067Z,4.32
2022-11-18T09:39:27.078Z,4.28
2022-11-18T09:42:25.316Z,3.90
2022-11-18T09:45:28.962Z,5.20
2022-11-18T09:48:00.231Z,3.95
2022-11-18T09:53:26.564Z,3.95
2022-11-18T09:55:56.078Z,4.00
2022-11-18T09:58:35.440Z,4.00
2022-11-18T10:01:10.045Z,4.30
2022-11-18T10:03:39.243Z,4.15
2022-11-18T10:06:23.923Z,4.03
2022-11-18T10:09:23.201Z,3.13
2022-11-18T10:12:13.049Z,4.00
2022-11-18T10:15:17.309Z,4.30
2022-11-18T10:18:31.994Z,4.00
2022-11-18T10:21:32.994Z,4.13
2022-11-18T10:24:08.077Z,3.67
2022-11-18T10:26:39.281Z,5.97
2022-11-18T10:29:10.242Z,4.40
2022-11-18T10:31:39.897Z,4.05
2022-11-18T10:34:07.791Z,3.13
2022-11-18T10:36:37.544Z,3.90
2022-11-18T10:39:17.490Z,3.95
2022-11-18T10:41:52.428Z,3.78
2022-11-18T10:44:31.482Z,3.80
2022-11-18T10:47:24.012Z,4.32
2022-11-18T10:49:52.878Z,3.88
2022-11-18T10:52:22.468Z,3.92
2022-11-18T10:55:09.489Z,4.13
2022-11-18T10:57:43.934Z,3.72
2022-11-18T11:00:42.944Z,4.30
2022-11-18T11:03:29.693Z,3.85
2022-11-18T11:06:32.914Z,4.35
2022-11-18T11:09:08.047Z,4.05
2022-11-18T11:11:40.266Z,3.63
2022-11-18T11:14:17.587Z,3.63
2022-11-18T11:16:59.570Z,4.35
2022-11-18T11:19:45.374Z,4.28
2022-11-18T11:22:14.667Z,4.50
2022-11-18T11:24:43.259Z,3.85
2022-11-18T11:30:23.319Z,4.15
2022-11-18T11:33:15.507Z,4.20
2022-11-18T11:35:55.305Z,4.05
2022-11-18T11:38:48.305Z,4.18
2022-11-18T11:41:25.245Z,4.25
2022-11-18T11:44:20.849Z,4.53
2022-11-18T11:47:35.215Z,4.68
2022-11-18T11:51:03.076Z,4.30
2022-11-18T11:53:56.266Z,4.20
2022-11-18T11:56:45.851Z,3.97
2022-11-18T11:59:37.322Z,4.22
2022-11-18T12:02:37.420Z,4.07
2022-11-18T12:05:20.956Z,3.72
2022-11-18T12:07:57.394Z,4.00
2022-11-18T12:10:45.907Z,4.68
2022-11-18T12:13:27.953Z,4.90
2022-11-18T12:16:30.798Z,4.30
2022-11-18T12:19:04.110Z,4.20
2022-11-18T12:21:56.058Z,4.10
2022-11-18T12:24:36.642Z,4.10
2022-11-18T12:27:27.969Z,4.57
2022-11-18T12:30:00.678Z,4.32
2022-11-18T12:32:47.036Z,4.13
2022-11-18T12:35:27.438Z,4.50
2022-11-18T12:38:01.041Z,4.47
2022-11-18T12:40:51.864Z,4.97
2022-11-18T12:44:01.320Z,4.90
2022-11-18T12:46:50.586Z,4.65
2022-11-18T12:49:53.542Z,4.65
2022-11-18T12:52:46.353Z,5.57
2022-11-18T12:55:19.623Z,4.70
2022-11-18T12:57:48.591Z,5.00
2022-11-18T13:00:32.908Z,4.90
2022-11-18T13:03:02.646Z,4.82
2022-11-18T13:05:34.939Z,4.78
2022-11-18T13:08:15.049Z,4.65
2022-11-18T13:10:56.201Z,4.53
2022-11-18T13:13:30.568Z,4.47
2022-11-18T13:16:20.761Z,3.83
2022-11-18T13:18:52.264Z,4.35
2022-11-18T13:21:40.158Z,4.75
2022-11-18T13:24:12.453Z,4.47
2022-11-18T13:26:45.289Z,4.47
2022-11-18T13:29:39.952Z,4.43
2022-11-18T13:32:25.188Z,4.78
2022-11-18T13:35:19.334Z,4.85
2022-11-18T13:37:55.622Z,4.85
2022-11-18T13:40:28.702Z,4.63
2022-11-18T13:42:58.794Z,4.43
2022-11-18T13:45:28.978Z,7.60
2022-11-18T13:48:07.709Z,4.70
2022-11-18T13:50:43.892Z,4.57
2022-11-18T13:53:38.241Z,4.70
2022-11-18T13:56:21.106Z,4.50
2022-11-18T13:59:16.994Z,4.68
2022-11-18T14:01:54.329Z,5.43
2022-11-18T14:04:32.085Z,5.28
2022-11-18T14:07:20.195Z,5.35
2022-11-18T14:10:02.619Z,5.18
2022-11-18T14:12:36.518Z,4.35
2022-11-18T14:15:40.536Z,5.15
2022-11-18T14:18:31.963Z,5.30
2022-11-18T14:21:02.634Z,5.00
2022-11-18T14:23:36.123Z,4.55
2022-11-18T14:26:06.925Z,5.07
2022-11-18T14:28:39.436Z,4.93
2022-11-18T14:34:22.529Z,4.75
2022-11-18T14:36:51.898Z,5.22
2022-11-18T14:39:27.414Z,5.10
2022-11-18T14:41:58.004Z,5.07
2022-11-18T14:44:29.120Z,5.40
2022-11-18T14:47:03.787Z,5.00
2022-11-18T14:49:32.995Z,4.88
2022-11-18T14:52:03.414Z,6.20
2022-11-18T14:54:33.497Z,4.80
2022-11-18T14:57:05.996Z,5.35
2022-11-18T14:59:36.089Z,5.17
2022-11-18T15:02:05.982Z,4.90
2022-11-18T15:04:35.570Z,4.97
2022-11-18T15:07:08.542Z,5.03
2022-11-18T15:09:37.923Z,4.15
2022-11-18T15:12:06.336Z,4.72
2022-11-18T15:14:39.837Z,5.45
2022-11-18T15:17:20.543Z,4.60
2022-11-18T15:19:52.520Z,4.18
2022-11-18T15:22:23.872Z,4.50
2022-11-18T15:24:56.186Z,4.38
2022-11-18T15:30:01.991Z,4.07
2022-11-18T15:32:39.361Z,4.60
2022-11-18T15:35:18.595Z,5.05
2022-11-18T15:37:50.680Z,4.93
2022-11-18T15:40:22.264Z,4.63
2022-11-18T15:42:52.360Z,5.00
2022-11-18T15:45:25.853Z,5.10
2022-11-18T15:50:31.087Z,4.83
2022-11-18T15:53:02.237Z,4.43
2022-11-18T15:55:37.803Z,4.43
2022-11-18T15:58:08.464Z,4.93
2022-11-18T16:00:39.516Z,4.50
2022-11-18T16:03:11.635Z,5.37
2022-11-18T16:05:44.848Z,4.55
2022-11-18T16:08:26.098Z,4.90
2022-11-18T16:11:18.616Z,4.30
2022-11-18T16:13:49.112Z,4.97
2022-11-18T16:16:28.474Z,4.95
2022-11-18T16:19:00.650Z,4.77
2022-11-18T16:21:32.206Z,5.10
2022-11-18T16:24:04.091Z,4.55
2022-11-18T16:26:33.864Z,4.53
2022-11-18T16:29:05.232Z,4.47
2022-11-18T16:31:45.295Z,4.57
2022-11-18T16:34:33.769Z,4.70
2022-11-18T16:37:04.190Z,4.93
2022-11-18T16:39:35.134Z,4.73
2022-11-18T16:42:10.832Z,5.30
2022-11-18T16:44:45.211Z,4.82
2022-11-18T16:47:18.196Z,6.93
2022-11-18T16:49:48.591Z,4.90
2022-11-18T16:52:17.991Z,4.57
2022-11-18T16:54:47.773Z,4.72
2022-11-18T16:57:17.942Z,4.40
2022-11-18T16:59:49.117Z,4.63
2022-11-18T17:02:21.446Z,4.72
2022-11-18T17:07:22.057Z,4.72
2022-11-18T17:09:52.550Z,4.28
2022-11-18T17:12:24.684Z,4.20
2022-11-18T17:14:55.334Z,4.63
2022-11-18T17:17:26.967Z,4.43
2022-11-18T17:19:57.367Z,4.40
2022-11-18T17:22:27.748Z,4.80
2022-11-18T17:25:03.783Z,4.55
2022-11-18T17:27:35.627Z,5.13
2022-11-18T17:30:10.713Z,4.82
2022-11-18T17:32:41.844Z,4.60
2022-11-18T17:35:12.656Z,5.03
2022-11-18T17:46:38.231Z,4.97
2022-11-18T17:49:16.896Z,4.82
2022-11-18T17:51:48.981Z,4.85
2022-11-18T17:54:20.817Z,5.53
2022-11-18T17:56:53.755Z,5.85
2022-11-18T17:59:27.360Z,5.82
2022-11-18T18:01:59.796Z,5.32
2022-11-18T18:04:30.933Z,5.40
2022-11-18T18:07:00.847Z,5.07
2022-11-18T18:09:31.604Z,5.07
2022-11-18T18:12:23.093Z,5.00
2022-11-18T18:14:55.446Z,5.15
2022-11-18T18:17:28.934Z,5.45
2022-11-18T18:20:01.302Z,4.90
2022-11-18T18:22:33.626Z,5.10
2022-11-18T18:25:05.711Z,5.30
2022-11-18T18:27:37.720Z,5.00
2022-11-18T18:30:11.383Z,5.57
2022-11-18T18:32:41.579Z,5.70
2022-11-18T18:35:12.899Z,5.60
2022-11-18T18:37:43.137Z,5.25
2022-11-18T18:40:15.045Z,5.30
2022-11-18T18:42:45.130Z,5.40
2022-11-18T18:45:30.223Z,5.82
2022-11-18T18:48:04.102Z,5.10
2022-11-18T18:50:37.809Z,5.68
2022-11-18T18:53:07.456Z,5.50
2022-11-18T18:55:41.947Z,5.90
2022-11-18T18:58:13.290Z,5.22
2022-11-18T19:00:43.372Z,5.65
2022-11-18T19:03:11.450Z,5.22
2022-11-18T19:06:12.736Z,5.55
2022-11-18T19:08:30.781Z,6.20
2022-11-18T19:10:59.343Z,6.10
2022-11-18T19:13:29.503Z,5.82
2022-11-18T19:15:58.284Z,5.75
2022-11-18T19:18:27.157Z,5.63
2022-11-18T19:20:55.613Z,5.57
2022-11-18T19:23:27.128Z,5.40
2022-11-18T19:26:03.087Z,5.85
2022-11-18T19:28:31.975Z,5.10
2022-11-18T19:31:05.045Z,5.93
2022-11-18T19:33:33.565Z,5.60
2022-11-18T19:36:04.920Z,5.55
2022-11-18T19:38:36.251Z,5.38
2022-11-18T19:41:08.200Z,6.35
2022-11-18T19:43:36.787Z,5.05
2022-11-18T19:46:06.902Z,6.07
2022-11-18T19:48:36.359Z,5.83
2022-11-18T19:51:10.533Z,5.82
2022-11-18T19:53:40.693Z,5.90
2022-11-18T19:56:16.573Z,7.13
2022-11-18T19:58:51.095Z,6.18
2022-11-18T20:01:24.930Z,5.72
2022-11-18T20:03:56.928Z,5.70
2022-11-18T20:06:27.484Z,5.75
2022-11-18T20:08:57.592Z,5.87
2022-11-18T20:11:26.283Z,5.25
2022-11-18T20:13:55.020Z,5.77
2022-11-18T20:16:26.695Z,5.60
2022-11-18T20:18:57.538Z,5.32
2022-11-18T20:21:31.013Z,5.82
2022-11-18T20:24:02.610Z,5.78
2022-11-18T20:26:35.749Z,5.72
2022-11-18T20:29:05.477Z,6.15
2022-11-18T20:31:34.297Z,6.13
2022-11-18T20:34:04.427Z,7.13
2022-11-18T20:36:36.711Z,6.80
2022-11-18T20:39:09.527Z,6.22
2022-11-18T20:44:09.347Z,6.00
2022-11-18T20:46:37.651Z,5.72
2022-11-18T20:49:05.922Z,5.90
2022-11-18T20:51:33.345Z,5.28
2022-11-18T20:54:02.359Z,5.22
2022-11-18T20:56:30.771Z,6.22
2022-11-18T20:58:58.657Z,4.97
2022-11-18T21:01:29.593Z,5.20
2022-11-18T21:04:02.162Z,5.47
2022-11-18T21:06:31.895Z,5.10
2022-11-18T21:09:02.704Z,5.70
2022-11-18T21:11:34.915Z,5.75
2022-11-18T21:14:23.825Z,5.47
2022-11-18T21:16:56.096Z,5.65
2022-11-18T21:19:27.075Z,5.35
2022-11-18T21:21:56.560Z,5.77
2022-11-18T21:24:29.826Z,5.03
2022-11-18T21:26:59.942Z,4.97
2022-11-18T21:29:29.675Z,5.60
2022-11-18T21:32:01.611Z,5.50
2022-11-18T21:34:29.680Z,5.68
2022-11-18T21:36:58.363Z,5.67
2022-11-18T21:39:27.737Z,6.13
2022-11-18T21:41:57.377Z,5.90
2022-11-18T21:44:28.694Z,6.80
2022-11-18T21:46:57.650Z,6.28
2022-11-18T21:49:25.761Z,5.83
2022-11-18T21:51:53.908Z,6.27
2022-11-18T21:54:22.317Z,5.83
2022-11-18T21:56:50.112Z,5.40
2022-11-18T21:59:18.293Z,6.13
2022-11-18T22:01:47.193Z,6.17
2022-11-18T22:04:34.794Z,6.20
2022-11-18T22:07:03.005Z,5.70
2022-11-18T22:09:36.034Z,5.93
2022-11-18T22:12:05.237Z,5.67
2022-11-18T22:14:33.142Z,6.10
2022-11-18T22:17:01.236Z,6.33
2022-11-18T22:19:29.990Z,5.70
2022-11-18T22:21:59.301Z,5.85
2022-11-18T22:24:27.164Z,6.10
2022-11-18T22:26:55.311Z,6.60
2022-11-18T22:29:25.128Z,6.38
2022-11-18T22:31:53.733Z,5.80
2022-11-18T22:34:21.691Z,6.22
2022-11-18T22:36:49.753Z,6.30
2022-11-18T22:39:18.590Z,5.68
2022-11-18T22:42:02.126Z,5.18
2022-11-18T22:44:36.244Z,6.20
2022-11-18T22:47:04.266Z,5.63
2022-11-18T22:49:32.098Z,5.85
2022-11-18T22:52:00.882Z,5.55
2022-11-18T22:54:44.773Z,6.15
2022-11-18T22:57:12.633Z,5.40
2022-11-18T22:59:41.168Z,5.25
2022-11-18T23:02:10.657Z,5.30
2022-11-18T23:04:38.540Z,5.25
2022-11-18T23:07:06.511Z,5.72
2022-11-18T23:09:36.992Z,5.30
2022-11-18T23:12:20.613Z,5.40
2022-11-18T23:14:48.565Z,5.53
2022-11-18T23:17:16.415Z,5.85
2022-11-18T23:19:44.325Z,5.80
2022-11-18T23:22:13.093Z,5.75
2022-11-18T23:24:41.081Z,6.10
2022-11-18T23:27:09.173Z,5.88
2022-11-18T23:29:36.966Z,5.88
2022-11-18T23:32:05.244Z,6.57
2022-11-18T23:34:33.421Z,6.22
2022-11-18T23:37:01.698Z,5.78
2022-11-18T23:39:29.550Z,6.22
2022-11-18T23:41:57.179Z,6.53
2022-11-18T23:44:45.070Z,6.25
2022-11-18T23:47:13.315Z,6.93
2022-11-18T23:49:41.504Z,6.80
2022-11-18T23:52:09.717Z,6.43
2022-11-18T23:54:39.072Z,6.68
2022-11-18T23:57:08.135Z,6.65
2022-11-18T23:59:36.184Z,7.43
